Time;durP1;ratioP1;P1;durP2;ratioP2;P2;SDS_P1;SDS_P2;PMS_P1;PMS_P2;Temp;Humidity;BMP_temperature;BMP_pressure;BME280_temperature;BME280_humidity;BME280_pressure;Samples;Min_cycle;Max_cycle;Signal;HPM_P1;HPM_P2
2024/03/16 00:01:06;;;;;;;6.60;1.15;;;11.90;99.90;;;;;;5046822;23;20158;-92
2024/03/16 00:03:09;;;;;;;4.10;0.43;;;12.00;99.90;;;;;;5048769;23;20506;-92
2024/03/16 00:05:12;;;;;;;8.32;1.10;;;12.10;99.90;;;;;;5024474;23;20629;-92
2024/03/16 00:07:14;;;;;;;9.05;1.20;;;12.00;99.90;;;;;;5048286;23;20146;-94
2024/03/16 00:09:16;;;;;;;2.97;0.40;;;12.00;99.90;;;;;;5023643;23;20163;-93
2024/03/16 00:11:19;;;;;;;5.53;0.82;;;12.00;99.90;;;;;;5048134;23;20584;-92
2024/03/16 00:13:21;;;;;;;6.03;1.17;;;12.00;99.90;;;;;;5047549;23;20150;-93
2024/03/16 00:15:24;;;;;;;3.15;0.75;;;11.90;99.90;;;;;;5073187;23;20153;-94
2024/03/16 00:17:28;;;;;;;6.65;0.82;;;12.00;99.90;;;;;;5047316;23;20163;-93
2024/03/16 00:19:33;;;;;;;2.95;0.93;;;11.90;99.90;;;;;;5047623;23;20171;-92
2024/03/16 00:21:37;;;;;;;1.65;0.47;;;12.00;99.90;;;;;;5047509;23;20236;-93
2024/03/16 00:23:39;;;;;;;7.45;0.82;;;12.00;99.90;;;;;;5047129;23;20233;-93
2024/03/16 00:25:42;;;;;;;1.75;0.30;;;12.10;99.90;;;;;;5048516;23;20158;-92
2024/03/16 00:27:43;;;;;;;6.88;0.60;;;12.00;99.90;;;;;;5047109;23;20228;-93
2024/03/16 00:29:45;;;;;;;6.15;0.73;;;12.10;99.90;;;;;;5047281;23;20202;-92
2024/03/16 00:31:48;;;;;;;3.53;0.63;;;11.90;99.90;;;;;;5023350;23;20195;-92
2024/03/16 00:33:50;;;;;;;5.50;0.85;;;12.00;99.90;;;;;;5047895;23;20185;-94
2024/03/16 00:35:52;;;;;;;3.30;0.75;;;12.20;99.90;;;;;;5047231;23;20649;-93
2024/03/16 00:37:55;;;;;;;4.38;0.70;;;12.30;99.90;;;;;;5047574;23;20605;-92
2024/03/16 00:39:56;;;;;;;6.05;0.75;;;12.20;99.90;;;;;;5047430;23;20194;-93
2024/03/16 00:41:58;;;;;;;4.05;0.80;;;12.20;99.90;;;;;;5047586;23;20158;-94
2024/03/16 00:43:59;;;;;;;2.92;0.63;;;12.30;99.90;;;;;;4999789;23;20211;-94
2024/03/16 00:46:00;;;;;;;5.72;0.70;;;12.10;99.90;;;;;;5023293;23;20198;-93
2024/03/16 00:48:04;;;;;;;1.40;0.55;;;12.10;99.90;;;;;;5046997;23;20154;-92
2024/03/16 00:50:09;;;;;;;7.88;0.85;;;11.90;99.90;;;;;;5047798;23;20170;-93
2024/03/16 00:52:10;;;;;;;0.60;0.25;;;11.90;99.90;;;;;;5023989;23;20190;-93
2024/03/16 00:54:11;;;;;;;3.35;0.40;;;11.90;99.90;;;;;;5023450;23;20627;-92
2024/03/16 00:56:12;;;;;;;0.88;0.28;;;11.90;99.90;;;;;;5046918;23;20158;-92
2024/03/16 00:58:16;;;;;;;3.63;0.30;;;12.00;99.90;;;;;;5048397;23;20182;-92
2024/03/16 01:00:18;;;;;;;6.90;0.50;;;11.80;99.90;;;;;;5047029;23;20182;-93
2024/03/16 01:02:23;;;;;;;2.35;0.50;;;11.80;99.90;;;;;;5029859;23;20166;-92
2024/03/16 01:04:36;;;;;;;2.10;0.50;;;11.50;99.90;;;;;;5058421;23;20233;-92
2024/03/16 01:06:39;;;;;;;2.80;0.60;;;11.60;99.90;;;;;;5057820;23;20163;-93
2024/03/16 01:08:42;;;;;;;6.32;0.85;;;11.60;99.90;;;;;;5033439;23;20134;-94
2024/03/16 01:10:54;;;;;;;5.18;0.40;;;11.80;99.90;;;;;;5056435;23;20193;-93
2024/03/16 01:13:01;;;;;;;0.25;0.22;;;11.90;99.90;;;;;;5035234;23;20238;-93
2024/03/16 01:15:09;;;;;;;3.63;0.68;;;12.10;99.90;;;;;;5034107;23;20149;-92
2024/03/16 01:17:17;;;;;;;8.93;1.15;;;12.00;99.90;;;;;;5055801;23;20150;-93
2024/03/16 01:19:25;;;;;;;9.90;0.85;;;12.10;99.90;;;;;;5035092;23;20190;-93
2024/03/16 01:21:31;;;;;;;5.20;0.70;;;12.00;99.90;;;;;;5056171;23;20157;-93
2024/03/16 01:23:38;;;;;;;2.30;0.55;;;11.80;99.90;;;;;;5055874;23;20170;-93
2024/03/16 01:25:42;;;;;;;2.15;0.47;;;11.70;99.90;;;;;;5034025;23;20174;-93
2024/03/16 01:27:47;;;;;;;2.83;0.82;;;11.70;99.90;;;;;;5055360;23;20158;-92
2024/03/16 01:29:56;;;;;;;2.33;0.90;;;11.60;99.90;;;;;;5056668;23;20174;-92
2024/03/16 01:31:59;;;;;;;4.72;0.60;;;11.50;99.90;;;;;;5056863;23;20193;-93
2024/03/16 01:34:01;;;;;;;4.60;0.85;;;11.60;99.90;;;;;;5051733;23;20150;-93
2024/03/16 01:36:03;;;;;;;8.48;1.92;;;11.50;99.90;;;;;;5051901;23;20237;-93
2024/03/16 01:38:04;;;;;;;1.35;0.40;;;11.40;99.90;;;;;;5028101;23;20159;-93
2024/03/16 01:40:09;;;;;;;2.95;0.43;;;11.60;99.90;;;;;;5051800;23;20194;-93
2024/03/16 01:42:10;;;;;;;3.92;0.50;;;11.70;99.90;;;;;;5051577;23;20150;-93
2024/03/16 01:44:12;;;;;;;2.70;1.13;;;11.70;99.90;;;;;;5051727;23;20209;-93
2024/03/16 01:46:15;;;;;;;4.50;0.75;;;11.80;99.90;;;;;;5053812;23;20154;-92
2024/03/16 01:48:19;;;;;;;5.10;0.98;;;11.70;99.90;;;;;;5055516;23;20727;-92
2024/03/16 01:50:22;;;;;;;4.47;1.27;;;11.60;99.90;;;;;;5053715;23;20171;-93
2024/03/16 01:52:24;;;;;;;0.93;0.43;;;11.70;99.90;;;;;;5053731;23;20229;-92
2024/03/16 01:54:27;;;;;;;1.55;1.08;;;11.60;99.90;;;;;;5030276;23;20177;-93
2024/03/16 01:56:31;;;;;;;3.97;0.90;;;11.60;99.90;;;;;;5053828;23;20182;-93
2024/03/16 01:58:45;;;;;;;9.73;1.65;;;11.60;99.90;;;;;;5052812;23;20315;-93
2024/03/16 02:01:03;;;;;;;6.80;0.77;;;11.60;99.90;;;;;;5053285;23;20217;-92
2024/03/16 02:03:04;;;;;;;2.65;0.65;;;11.70;99.90;;;;;;5049568;23;20150;-92
2024/03/16 02:05:08;;;;;;;4.20;0.60;;;11.70;99.90;;;;;;5026204;23;20668;-91
2024/03/16 02:07:12;;;;;;;4.30;0.85;;;11.70;99.90;;;;;;5057430;23;20513;-92
2024/03/16 02:09:13;;;;;;;3.63;0.75;;;11.60;99.90;;;;;;5059642;23;20154;-93
2024/03/16 02:11:14;;;;;;;6.32;1.25;;;11.60;99.90;;;;;;5035223;23;20289;-93
2024/03/16 02:13:16;;;;;;;4.18;1.27;;;11.60;99.90;;;;;;5024449;23;20199;-93
2024/03/16 02:15:19;;;;;;;1.95;0.57;;;11.60;99.90;;;;;;5023445;23;20155;-93
2024/03/16 02:17:21;;;;;;;6.10;0.95;;;11.60;99.90;;;;;;5022751;23;20210;-92
2024/03/16 02:19:23;;;;;;;3.80;1.10;;;11.50;99.90;;;;;;5050676;23;20178;-92
2024/03/16 02:21:25;;;;;;;2.95;0.85;;;11.40;99.90;;;;;;5050422;23;20169;-93
2024/03/16 02:23:28;;;;;;;4.15;1.40;;;11.50;99.90;;;;;;5046717;23;20154;-92
2024/03/16 02:25:30;;;;;;;4.25;0.93;;;11.50;99.90;;;;;;5024210;23;20231;-92
2024/03/16 02:27:32;;;;;;;2.35;1.00;;;11.60;99.90;;;;;;5048599;23;20155;-92
2024/03/16 02:29:36;;;;;;;3.63;1.20;;;11.50;99.90;;;;;;5047759;23;20253;-92
2024/03/16 02:31:41;;;;;;;5.15;1.50;;;11.60;99.90;;;;;;5048574;23;20249;-92
2024/03/16 02:33:42;;;;;;;3.83;1.52;;;11.40;99.90;;;;;;5048357;23;20154;-92
2024/03/16 02:35:44;;;;;;;8.18;1.30;;;11.50;99.90;;;;;;5024165;23;20171;-92
2024/03/16 02:37:49;;;;;;;5.32;1.55;;;11.50;99.90;;;;;;5050257;23;20153;-93
2024/03/16 02:39:51;;;;;;;5.72;1.80;;;11.50;99.90;;;;;;5048734;23;20198;-92
2024/03/16 02:41:55;;;;;;;5.35;1.83;;;11.50;99.90;;;;;;5025143;23;20633;-94
2024/03/16 02:43:58;;;;;;;5.75;1.52;;;11.60;99.90;;;;;;5048415;23;20164;-93
2024/03/16 02:46:00;;;;;;;3.17;1.63;;;11.80;99.90;;;;;;5048350;23;20162;-93
2024/03/16 02:48:24;;;;;;;5.35;1.70;;;11.60;99.90;;;;;;5048960;23;20596;-91
2024/03/16 02:50:27;;;;;;;2.80;1.58;;;11.70;99.90;;;;;;5024717;23;20179;-92
2024/03/16 02:52:28;;;;;;;5.72;2.13;;;11.80;99.90;;;;;;5047663;23;20193;-92
2024/03/16 02:54:36;;;;;;;7.22;2.22;;;12.00;99.90;;;;;;5048863;23;20158;-93
2024/03/16 02:56:40;;;;;;;6.50;2.42;;;12.00;99.90;;;;;;5024840;23;20150;-93
2024/03/16 02:58:43;;;;;;;7.07;2.70;;;12.00;99.90;;;;;;5047685;23;20637;-92
2024/03/16 03:00:48;;;;;;;4.80;1.98;;;12.10;99.90;;;;;;5048872;23;20220;-93
2024/03/16 03:02:50;;;;;;;4.28;1.90;;;12.10;99.90;;;;;;5048120;23;20158;-92
2024/03/16 03:04:52;;;;;;;7.38;1.85;;;11.90;99.90;;;;;;4999765;23;20587;-92
2024/03/16 03:06:54;;;;;;;14.40;4.22;;;11.70;99.90;;;;;;5045161;23;20217;-92
2024/03/16 03:08:58;;;;;;;12.73;4.35;;;11.20;99.90;;;;;;5047877;23;20252;-93
2024/03/16 03:11:00;;;;;;;6.10;3.72;;;11.00;99.90;;;;;;5023058;23;20641;-92
2024/03/16 03:13:06;;;;;;;14.82;5.65;;;10.80;99.90;;;;;;5023994;23;20155;-93
2024/03/16 03:15:09;;;;;;;7.38;3.17;;;10.60;99.90;;;;;;5048147;23;20154;-93
2024/03/16 03:17:10;;;;;;;8.00;3.83;;;10.40;99.90;;;;;;5047990;23;20509;-93
2024/03/16 03:19:18;;;;;;;6.35;3.42;;;10.50;99.90;;;;;;5023516;23;20226;-92
2024/03/16 03:21:20;;;;;;;6.15;2.38;;;10.60;99.90;;;;;;5047709;23;20181;-92
2024/03/16 03:23:21;;;;;;;3.97;2.03;;;10.60;99.90;;;;;;5023686;23;20573;-92
2024/03/16 03:25:22;;;;;;;6.45;2.08;;;10.60;99.90;;;;;;5047684;23;20150;-92
2024/03/16 03:27:24;;;;;;;4.10;1.80;;;10.30;99.90;;;;;;5046994;23;20162;-92
2024/03/16 03:29:26;;;;;;;7.35;1.83;;;10.20;99.90;;;;;;5023747;23;20179;-92
2024/03/16 03:31:29;;;;;;;4.55;1.35;;;10.00;99.90;;;;;;4998483;23;20191;-93
2024/03/16 03:33:32;;;;;;;3.63;1.48;;;10.00;99.90;;;;;;5047092;23;20605;-92
2024/03/16 03:35:34;;;;;;;2.83;1.00;;;9.90;99.90;;;;;;5046302;23;20155;-92
2024/03/16 03:37:36;;;;;;;3.72;1.65;;;9.70;99.90;;;;;;5022994;23;20271;-92
2024/03/16 03:39:42;;;;;;;3.08;1.40;;;9.40;99.90;;;;;;5045723;23;20182;-92
2024/03/16 03:41:44;;;;;;;1.40;0.85;;;9.30;99.90;;;;;;5046938;23;20150;-92
2024/03/16 03:43:57;;;;;;;5.38;1.58;;;9.30;99.90;;;;;;5046760;23;20566;-93
2024/03/16 03:46:01;;;;;;;2.08;1.20;;;9.40;99.90;;;;;;5023058;23;20155;-93
2024/03/16 03:50:28;;;;;;;2.85;1.40;;;9.40;99.90;;;;;;5047422;23;20167;-93
2024/03/16 03:52:30;;;;;;;1.38;0.88;;;9.40;99.90;;;;;;5047632;23;20664;-93
2024/03/16 03:54:31;;;;;;;10.88;1.25;;;9.30;99.90;;;;;;5047038;23;20180;-93
2024/03/16 03:56:37;;;;;;;4.38;1.40;;;9.30;99.90;;;;;;5023025;23;20634;-92
2024/03/16 03:58:40;;;;;;;1.70;1.17;;;9.30;99.90;;;;;;5046755;23;20150;-92
2024/03/16 04:00:45;;;;;;;11.82;1.20;;;9.30;99.90;;;;;;5046902;23;20260;-93
2024/03/16 04:02:47;;;;;;;3.25;1.80;;;9.10;99.90;;;;;;5023328;23;20205;-92
2024/03/16 04:04:50;;;;;;;4.80;1.38;;;9.00;99.90;;;;;;5023531;23;20159;-93
2024/03/16 04:07:00;;;;;;;5.25;1.48;;;9.30;99.90;;;;;;5023677;23;20163;-93
2024/03/16 04:09:03;;;;;;;2.53;1.55;;;9.30;99.90;;;;;;5048498;23;20161;-93
2024/03/16 04:11:04;;;;;;;3.15;1.70;;;9.30;99.90;;;;;;4999579;23;20207;-93
2024/03/16 04:13:07;;;;;;;9.07;1.73;;;9.20;99.90;;;;;;5022993;23;20250;-93
2024/03/16 04:15:09;;;;;;;10.82;2.45;;;9.40;99.90;;;;;;5023069;23;20151;-92
2024/03/16 04:17:10;;;;;;;5.40;1.92;;;9.50;99.90;;;;;;5023422;23;20167;-93
2024/03/16 04:19:11;;;;;;;3.13;1.77;;;9.60;99.90;;;;;;5024658;23;20170;-95
2024/03/16 04:21:12;;;;;;;6.85;2.10;;;9.50;99.90;;;;;;5023087;23;20225;-94
2024/03/16 04:23:15;;;;;;;5.28;2.10;;;9.60;99.90;;;;;;5047660;23;20150;-93
2024/03/16 04:25:18;;;;;;;7.75;2.08;;;9.70;99.90;;;;;;5046818;23;20158;-93
2024/03/16 04:27:22;;;;;;;4.03;1.73;;;9.50;99.90;;;;;;5047901;23;20201;-92
2024/03/16 04:29:24;;;;;;;6.57;1.95;;;9.70;99.90;;;;;;4999532;23;20216;-92
2024/03/16 04:31:28;;;;;;;3.85;1.85;;;9.70;99.90;;;;;;5022622;23;20612;-92
2024/03/16 04:33:31;;;;;;;7.03;1.83;;;9.70;99.90;;;;;;5047448;23;20613;-94
2024/03/16 04:35:33;;;;;;;6.85;1.95;;;9.70;99.90;;;;;;5047543;23;20157;-93
2024/03/16 04:37:36;;;;;;;5.78;1.98;;;9.70;99.90;;;;;;5060242;23;20150;-92
2024/03/16 04:39:43;;;;;;;2.67;1.40;;;9.60;99.90;;;;;;5060883;23;20700;-92
2024/03/16 04:41:47;;;;;;;3.58;1.50;;;9.50;99.90;;;;;;5047378;23;20609;-93
2024/03/16 04:43:51;;;;;;;5.60;1.33;;;9.50;99.90;;;;;;5046956;23;20147;-93
2024/03/16 04:45:58;;;;;;;2.72;1.63;;;9.50;99.90;;;;;;5023679;23;20162;-93
2024/03/16 04:48:05;;;;;;;5.40;1.55;;;9.60;99.90;;;;;;5023811;23;20158;-94
2024/03/16 04:50:11;;;;;;;3.85;1.38;;;9.80;99.90;;;;;;5046370;23;20174;-92
2024/03/16 04:52:15;;;;;;;2.88;1.58;;;9.80;99.90;;;;;;5047928;23;20169;-94
2024/03/16 04:54:18;;;;;;;3.17;1.30;;;9.60;99.90;;;;;;5046273;23;20230;-93
2024/03/16 04:56:20;;;;;;;5.72;1.67;;;9.40;99.90;;;;;;5022767;23;20714;-94
2024/03/16 04:58:22;;;;;;;1.05;0.80;;;9.50;99.90;;;;;;5022933;23;20151;-93
2024/03/16 05:00:24;;;;;;;3.75;1.20;;;9.40;99.90;;;;;;5022481;23;20203;-93
2024/03/16 05:02:26;;;;;;;6.65;1.35;;;9.30;99.90;;;;;;5047809;23;20150;-93
2024/03/16 05:04:30;;;;;;;4.00;1.33;;;9.20;99.90;;;;;;5022939;23;20154;-92
2024/03/16 05:06:32;;;;;;;3.95;1.40;;;9.20;99.90;;;;;;5046136;23;20228;-91
2024/03/16 05:08:34;;;;;;;2.08;1.15;;;9.20;99.90;;;;;;5046348;23;20241;-93
2024/03/16 05:10:37;;;;;;;3.35;1.35;;;9.30;99.90;;;;;;5022430;23;20207;-93
2024/03/16 05:12:39;;;;;;;3.83;1.35;;;9.30;99.90;;;;;;5046501;23;20186;-94
2024/03/16 05:14:40;;;;;;;3.30;1.40;;;9.10;99.90;;;;;;5046946;23;20234;-92
2024/03/16 05:16:45;;;;;;;4.20;1.15;;;9.10;99.90;;;;;;5046906;23;20217;-92
2024/03/16 05:18:47;;;;;;;3.10;1.33;;;9.10;99.90;;;;;;5046398;23;20225;-91
2024/03/16 05:20:50;;;;;;;1.25;0.85;;;9.10;99.90;;;;;;5022392;23;20238;-94
2024/03/16 05:22:52;;;;;;;1.65;0.50;;;9.20;99.90;;;;;;5046305;23;20177;-93
2024/03/16 05:24:55;;;;;;;0.93;0.57;;;9.10;99.90;;;;;;5023150;23;20182;-92
2024/03/16 05:26:57;;;;;;;2.00;1.02;;;9.20;99.90;;;;;;5046068;23;20237;-92
2024/03/16 05:28:58;;;;;;;4.60;1.02;;;9.20;99.90;;;;;;5046070;23;20489;-93
2024/03/16 05:31:00;;;;;;;5.28;0.50;;;9.20;99.90;;;;;;5022418;23;20298;-93
2024/03/16 05:33:04;;;;;;;6.63;1.08;;;9.30;99.90;;;;;;5022837;23;20159;-92
2024/03/16 05:35:10;;;;;;;4.65;0.30;;;9.30;99.90;;;;;;5023605;23;20618;-93
2024/03/16 05:37:11;;;;;;;0.82;0.60;;;9.10;99.90;;;;;;5022877;23;20150;-92
2024/03/16 05:39:14;;;;;;;1.77;0.70;;;9.10;99.90;;;;;;5046570;23;20240;-93
2024/03/16 05:41:19;;;;;;;9.32;0.75;;;9.10;99.90;;;;;;5046416;23;20154;-93
2024/03/16 05:43:20;;;;;;;1.42;0.60;;;9.10;99.90;;;;;;5046563;23;20202;-93
2024/03/16 05:45:23;;;;;;;6.57;0.47;;;9.00;99.90;;;;;;5046060;23;20150;-93
2024/03/16 05:47:24;;;;;;;1.25;0.30;;;9.00;99.90;;;;;;5046448;23;20154;-93
2024/03/16 05:49:25;;;;;;;1.13;0.50;;;8.90;99.90;;;;;;5021986;23;20171;-93
2024/03/16 05:51:28;;;;;;;2.42;0.45;;;9.10;99.90;;;;;;5022536;23;20205;-93
2024/03/16 05:53:34;;;;;;;4.00;0.60;;;9.00;99.90;;;;;;5046481;23;20170;-92
2024/03/16 05:55:38;;;;;;;1.30;0.70;;;9.00;99.90;;;;;;5047501;23;20154;-92
2024/03/16 05:57:42;;;;;;;4.10;0.68;;;8.80;99.90;;;;;;5048478;23;20528;-92
2024/03/16 05:59:43;;;;;;;0.35;0.35;;;8.70;99.90;;;;;;5048703;23;20186;-92
2024/03/16 06:01:46;;;;;;;0.47;0.30;;;8.80;99.90;;;;;;5047864;23;20154;-93
2024/03/16 06:03:51;;;;;;;3.70;1.25;;;8.90;99.90;;;;;;5047915;23;20185;-92
2024/03/16 06:05:53;;;;;;;2.53;0.77;;;8.90;99.90;;;;;;5000530;23;20159;-93
2024/03/16 06:07:55;;;;;;;1.63;0.50;;;9.00;99.90;;;;;;5049267;23;20241;-91
2024/03/16 06:09:58;;;;;;;2.38;0.60;;;9.10;99.90;;;;;;5056529;23;20171;-93
2024/03/16 06:11:59;;;;;;;2.38;0.65;;;9.10;99.90;;;;;;5056709;23;20245;-93
2024/03/16 06:14:09;;;;;;;0.40;0.30;;;9.10;99.90;;;;;;5056311;23;20407;-94
2024/03/16 06:16:21;;;;;;;2.40;0.90;;;9.10;99.90;;;;;;5050997;23;20189;-93
2024/03/16 06:18:25;;;;;;;2.95;0.50;;;9.10;99.90;;;;;;5027724;23;20165;-93
2024/03/16 06:20:30;;;;;;;0.68;0.30;;;9.10;99.90;;;;;;5029503;23;20183;-94
2024/03/16 06:22:36;;;;;;;2.95;0.52;;;9.00;99.90;;;;;;5054829;23;20169;-94
2024/03/16 06:24:42;;;;;;;1.90;0.65;;;9.10;99.90;;;;;;5054078;23;20134;-93
2024/03/16 06:27:06;;;;;;;5.32;0.52;;;9.20;99.90;;;;;;5058671;23;20158;-93
2024/03/16 06:29:12;;;;;;;3.75;0.95;;;9.30;99.90;;;;;;5052636;23;20162;-92
2024/03/16 06:31:25;;;;;;;2.50;0.43;;;9.20;99.90;;;;;;5056623;23;20178;-92
2024/03/16 06:33:45;;;;;;;0.80;0.30;;;9.30;99.90;;;;;;5054932;23;20145;-93
2024/03/16 06:36:01;;;;;;;5.13;0.70;;;9.10;99.90;;;;;;5054651;23;20202;-94
2024/03/16 06:38:06;;;;;;;3.00;0.47;;;9.10;99.90;;;;;;5080273;23;20208;-94
2024/03/16 06:40:16;;;;;;;1.17;0.47;;;9.10;99.90;;;;;;5053939;23;20281;-93
2024/03/16 06:42:17;;;;;;;0.77;0.30;;;8.90;99.90;;;;;;5054966;23;20169;-93
2024/03/16 06:44:20;;;;;;;3.08;0.20;;;8.90;99.90;;;;;;5051991;23;20253;-94
2024/03/16 06:46:34;;;;;;;1.20;0.57;;;9.00;99.90;;;;;;5053712;23;20597;-92
2024/03/16 06:48:43;;;;;;;0.45;0.35;;;9.00;99.90;;;;;;5058467;23;20138;-94
2024/03/16 06:50:49;;;;;;;0.55;0.10;;;9.10;99.90;;;;;;5028842;23;20182;-93
2024/03/16 06:52:50;;;;;;;1.52;0.30;;;8.90;99.90;;;;;;5053098;23;20155;-93
2024/03/16 06:54:54;;;;;;;0.47;0.30;;;8.90;99.90;;;;;;5031318;23;20165;-94
2024/03/16 06:57:18;;;;;;;4.25;0.50;;;8.90;99.90;;;;;;5055119;23;20166;-94
2024/03/16 06:59:21;;;;;;;0.63;0.10;;;9.50;99.90;;;;;;5028561;23;20170;-93
2024/03/16 07:01:30;;;;;;;1.10;0.50;;;10.20;99.90;;;;;;5055014;23;20252;-94
2024/03/16 07:03:36;;;;;;;6.05;0.28;;;10.90;99.90;;;;;;5033456;23;20178;-92
2024/03/16 07:06:02;;;;;;;6.25;0.60;;;11.60;99.90;;;;;;5059128;23;20142;-93
2024/03/16 07:08:17;;;;;;;0.00;0.00;;;12.60;99.90;;;;;;5056081;23;20169;-93
2024/03/16 07:10:50;;;;;;;1.48;0.28;;;11.90;99.90;;;;;;5055060;23;20166;-92
2024/03/16 07:12:54;;;;;;;2.78;0.75;;;12.00;99.90;;;;;;5055703;23;20189;-93
2024/03/16 07:15:08;;;;;;;1.60;0.85;;;12.00;99.90;;;;;;5053282;23;20158;-93
2024/03/16 07:17:16;;;;;;;1.25;0.30;;;11.40;99.90;;;;;;5053570;23;20453;-94
2024/03/16 07:19:18;;;;;;;0.57;0.05;;;11.00;99.90;;;;;;5056306;23;20590;-93
2024/03/16 07:21:23;;;;;;;1.92;0.10;;;10.20;99.90;;;;;;5051527;23;20158;-94
2024/03/16 07:23:39;;;;;;;3.83;0.55;;;10.00;99.90;;;;;;5054258;23;20155;-93
2024/03/16 07:25:52;;;;;;;1.95;0.25;;;9.70;99.90;;;;;;5052400;23;20148;-93
2024/03/16 07:28:00;;;;;;;0.00;0.00;;;9.70;99.90;;;;;;5057294;23;20194;-92
2024/03/16 07:30:02;;;;;;;1.58;0.40;;;9.50;99.90;;;;;;5030757;23;20170;-92
2024/03/16 07:32:08;;;;;;;0.75;0.20;;;9.60;99.90;;;;;;5053022;23;20277;-92
2024/03/16 07:34:18;;;;;;;2.97;0.20;;;9.90;99.90;;;;;;5029100;23;20246;-93
2024/03/16 07:36:19;;;;;;;1.27;0.22;;;10.00;99.90;;;;;;5051996;23;20246;-92
2024/03/16 07:38:40;;;;;;;3.85;0.65;;;10.10;99.90;;;;;;5054932;23;20162;-94
2024/03/16 07:40:56;;;;;;;2.20;0.38;;;9.90;99.90;;;;;;5054789;23;20206;-94
2024/03/16 07:43:03;;;;;;;2.95;0.52;;;10.00;99.90;;;;;;5055791;23;20158;-94
2024/03/16 07:45:08;;;;;;;3.90;0.17;;;10.00;99.90;;;;;;5026145;23;20640;-94
2024/03/16 07:47:16;;;;;;;1.27;0.15;;;9.90;99.90;;;;;;5032734;23;20158;-92
2024/03/16 07:49:21;;;;;;;0.60;0.28;;;9.80;99.90;;;;;;5056091;23;20213;-94
2024/03/16 07:51:31;;;;;;;0.00;0.00;;;9.80;99.90;;;;;;5029251;23;20191;-93
2024/03/16 07:53:37;;;;;;;2.05;0.13;;;9.90;99.90;;;;;;5052955;23;20244;-94
2024/03/16 07:55:57;;;;;;;1.63;0.50;;;10.00;99.90;;;;;;5057553;23;20172;-93
2024/03/16 07:58:03;;;;;;;1.55;0.55;;;9.90;99.90;;;;;;5032405;23;20159;-92
2024/03/16 08:00:28;;;;;;;2.10;0.28;;;10.00;99.90;;;;;;5057475;23;20166;-92
2024/03/16 08:02:34;;;;;;;0.73;0.30;;;10.30;99.90;;;;;;5052170;23;20155;-93
2024/03/16 08:04:40;;;;;;;4.38;0.60;;;10.30;99.90;;;;;;5051211;23;20162;-93
2024/03/16 08:06:47;;;;;;;1.60;0.45;;;10.20;99.90;;;;;;5028136;23;20155;-92
2024/03/16 08:09:11;;;;;;;2.50;0.20;;;10.10;99.90;;;;;;5056588;23;20225;-93
2024/03/16 08:11:13;;;;;;;0.43;0.20;;;10.20;99.90;;;;;;5055023;23;20229;-93
2024/03/16 08:13:14;;;;;;;2.78;0.30;;;9.80;99.90;;;;;;5051041;23;20166;-93
2024/03/16 08:15:25;;;;;;;0.75;0.35;;;9.60;99.90;;;;;;5029814;23;20242;-93
2024/03/16 08:17:32;;;;;;;1.33;0.60;;;9.40;99.90;;;;;;5028264;23;20154;-93
2024/03/16 08:19:33;;;;;;;0.20;0.20;;;9.40;99.90;;;;;;5031059;23;20187;-92
2024/03/16 08:21:59;;;;;;;1.95;0.30;;;9.50;99.90;;;;;;5052913;23;20165;-93
2024/03/16 08:24:05;;;;;;;0.20;0.05;;;9.50;99.90;;;;;;5054537;23;20549;-93
2024/03/16 08:26:12;;;;;;;2.10;0.15;;;9.60;99.90;;;;;;5045238;23;20162;-93
2024/03/16 08:28:22;;;;;;;1.30;0.00;;;9.80;99.90;;;;;;5051731;23;20162;-92
2024/03/16 08:30:26;;;;;;;1.08;0.40;;;9.70;99.90;;;;;;5030293;23;20187;-93
2024/03/16 09:58:11;;;;;;;;;;;;;;;;;;;;;
2024/03/16 10:00:36;;;;;;;0.20;0.10;;;11.90;99.90;;;;;;4986703;23;20292;-92
2024/03/16 10:02:38;;;;;;;0.28;0.10;;;11.80;99.90;;;;;;4949934;23;20164;-93
2024/03/16 10:04:44;;;;;;;0.63;0.05;;;12.00;99.90;;;;;;4998482;23;20167;-92
2024/03/16 10:06:52;;;;;;;0.50;0.17;;;12.30;99.90;;;;;;4998634;23;20150;-92
2024/03/16 10:09:13;;;;;;;0.10;0.00;;;11.50;99.90;;;;;;4997598;23;20578;-93
2024/03/16 10:11:17;;;;;;;0.00;0.00;;;11.30;99.90;;;;;;5022886;23;20195;-93
2024/03/16 10:13:18;;;;;;;1.63;0.10;;;10.70;99.90;;;;;;5022769;23;20207;-93
2024/03/16 10:15:19;;;;;;;0.00;0.00;;;10.40;99.90;;;;;;4998494;23;20315;-92
2024/03/16 10:17:29;;;;;;;0.00;0.00;;;10.60;99.90;;;;;;5022819;23;20178;-91
2024/03/16 10:19:35;;;;;;;0.47;0.08;;;10.50;99.90;;;;;;4998766;23;20175;-94
2024/03/16 10:21:40;;;;;;;1.55;0.20;;;10.40;99.90;;;;;;5021977;23;20250;-92
2024/03/16 10:24:08;;;;;;;0.55;0.10;;;10.40;99.90;;;;;;4951309;24;20156;-93
2024/03/16 10:26:09;;;;;;;0.10;0.10;;;10.60;99.90;;;;;;4987570;23;20163;-93
2024/03/16 10:28:15;;;;;;;0.00;0.00;;;10.50;99.90;;;;;;4997653;23;20164;-92
2024/03/16 10:30:16;;;;;;;0.17;0.10;;;10.60;99.90;;;;;;5022478;23;20203;-91
2024/03/16 10:32:21;;;;;;;2.92;0.55;;;10.60;99.90;;;;;;5021953;23;20230;-93
2024/03/16 10:34:37;;;;;;;0.17;0.15;;;10.80;99.90;;;;;;5022002;23;20151;-94
2024/03/16 10:36:46;;;;;;;3.60;0.25;;;11.10;99.90;;;;;;4998262;23;20178;-94
2024/03/16 10:41:28;;;;;;;1.92;0.20;;;11.20;99.90;;;;;;5000904;23;20603;-96
2024/03/16 10:43:30;;;;;;;2.92;0.20;;;11.10;99.90;;;;;;4998442;23;20167;-95
2024/03/16 10:45:34;;;;;;;0.52;0.10;;;11.00;99.90;;;;;;4998479;23;20234;-93
2024/03/16 10:47:40;;;;;;;0.80;0.17;;;10.90;99.90;;;;;;4998283;23;20520;-93
2024/03/16 10:49:44;;;;;;;0.20;0.10;;;11.20;99.90;;;;;;4997253;23;20179;-92
2024/03/16 10:51:53;;;;;;;2.58;0.13;;;11.00;99.90;;;;;;4997651;23;20187;-95
2024/03/16 10:54:10;;;;;;;0.70;0.20;;;11.20;99.90;;;;;;4998333;23;20238;-93
2024/03/16 10:56:27;;;;;;;2.47;0.30;;;11.30;99.90;;;;;;4997919;23;20580;-94
2024/03/16 10:58:36;;;;;;;0.20;0.10;;;11.70;99.90;;;;;;5021568;23;20223;-95
2024/03/16 11:00:37;;;;;;;0.57;0.30;;;11.70;99.90;;;;;;5009278;23;20186;-94
2024/03/16 11:02:51;;;;;;;0.25;0.10;;;11.70;99.90;;;;;;5021652;23;20199;-95
2024/03/16 11:05:01;;;;;;;2.40;0.30;;;11.70;99.90;;;;;;5021479;23;20146;-93
2024/03/16 11:07:13;;;;;;;3.75;0.20;;;11.60;99.90;;;;;;5022830;23;20162;-93
2024/03/16 11:09:26;;;;;;;1.10;0.20;;;11.40;99.90;;;;;;5021624;23;20151;-93
2024/03/16 11:11:43;;;;;;;4.47;0.20;;;11.40;99.90;;;;;;5020846;23;20561;-93
2024/03/16 11:14:00;;;;;;;2.40;0.25;;;11.70;99.90;;;;;;5046334;23;20233;-93
2024/03/16 11:16:31;;;;;;;0.30;0.10;;;11.80;99.90;;;;;;5045654;23;20166;-93
2024/03/16 11:18:48;;;;;;;4.63;0.40;;;11.80;99.90;;;;;;5044615;23;20158;-93
2024/03/16 11:20:55;;;;;;;2.95;0.40;;;11.80;99.90;;;;;;5044798;23;20181;-93
2024/03/16 11:23:23;;;;;;;3.38;0.45;;;11.80;99.90;;;;;;5044424;23;20508;-92
2024/03/16 11:25:24;;;;;;;1.85;0.10;;;11.30;99.90;;;;;;5044854;23;20155;-92
2024/03/16 11:27:33;;;;;;;1.65;0.20;;;11.00;99.90;;;;;;5020946;23;20159;-96
2024/03/16 11:30:00;;;;;;;1.50;0.20;;;11.20;99.90;;;;;;5021229;23;20698;-93
2024/03/16 11:32:10;;;;;;;3.42;0.45;;;11.60;99.90;;;;;;5021447;23;20194;-92
2024/03/16 11:34:22;;;;;;;2.00;0.32;;;11.70;99.90;;;;;;5021481;23;20696;-93
2024/03/16 11:36:27;;;;;;;6.15;0.40;;;11.70;99.90;;;;;;5044288;23;20613;-94
2024/03/16 11:38:50;;;;;;;1.17;0.30;;;11.70;99.90;;;;;;5022277;23;20154;-94
2024/03/16 11:40:59;;;;;;;0.22;0.10;;;11.30;99.90;;;;;;5044128;23;20178;-93
2024/03/16 11:43:04;;;;;;;1.92;0.20;;;11.20;99.90;;;;;;5043983;23;20160;-93
2024/03/16 11:45:12;;;;;;;0.82;0.10;;;11.00;99.90;;;;;;5045135;23;20154;-96
2024/03/16 11:47:25;;;;;;;1.17;0.38;;;11.20;99.90;;;;;;5045584;23;20183;-96
2024/03/16 11:49:46;;;;;;;1.85;0.52;;;11.60;99.90;;;;;;5022798;23;20175;-94
2024/03/16 11:51:55;;;;;;;2.85;0.82;;;11.10;99.90;;;;;;5014076;23;20233;-96
2024/03/16 11:53:56;;;;;;;0.40;0.20;;;10.90;99.90;;;;;;5044732;23;20157;-92
2024/03/16 11:55:57;;;;;;;1.08;0.30;;;11.00;99.90;;;;;;5021225;23;20158;-95
2024/03/16 11:58:11;;;;;;;1.08;0.38;;;11.30;99.90;;;;;;5069217;23;20158;-96
2024/03/16 12:00:33;;;;;;;3.55;0.40;;;11.40;99.90;;;;;;5044023;23;20236;-94
2024/03/16 12:02:48;;;;;;;0.28;0.15;;;11.60;99.90;;;;;;5045219;23;20161;-94
2024/03/16 12:04:52;;;;;;;4.35;0.20;;;11.70;99.90;;;;;;5022181;23;20151;-92
2024/03/16 12:07:00;;;;;;;1.25;0.10;;;11.70;99.90;;;;;;5021721;23;20653;-92
2024/03/16 12:09:13;;;;;;;0.73;0.20;;;11.90;99.90;;;;;;5021772;23;20602;-96
2024/03/16 12:11:15;;;;;;;1.40;0.55;;;11.30;99.90;;;;;;5020741;23;20272;-92
2024/03/16 12:13:20;;;;;;;0.17;0.08;;;11.50;99.90;;;;;;5021412;23;20515;-94
2024/03/16 12:15:25;;;;;;;0.10;0.08;;;11.70;99.90;;;;;;5022118;23;20240;-93
2024/03/16 12:17:40;;;;;;;;;;;;;;;;;;;;;
2024/03/16 12:19:50;;;;;;;3.63;0.35;;;12.10;99.90;;;;;;5070026;23;20188;-95
2024/03/16 12:22:15;;;;;;;2.58;0.60;;;12.00;99.90;;;;;;5022561;23;20159;-92
2024/03/16 12:24:19;;;;;;;0.55;0.10;;;12.10;99.90;;;;;;5021232;23;20525;-94
2024/03/16 12:26:32;;;;;;;0.65;0.43;;;12.00;99.90;;;;;;5020431;23;20218;-92
2024/03/16 12:28:36;;;;;;;1.65;0.80;;;12.10;99.90;;;;;;5043714;23;20162;-95
2024/03/16 12:31:11;;;;;;;2.75;0.20;;;12.00;99.90;;;;;;5044611;23;20177;-93
2024/03/16 12:33:29;;;;;;;1.55;0.20;;;11.80;99.90;;;;;;5043343;23;20166;-91